Time;durP1;ratioP1;P1;durP2;ratioP2;P2;SDS_P1;SDS_P2;PMS_P1;PMS_P2;Temp;Humidity;BMP_temperature;BMP_pressure;BME280_temperature;BME280_humidity;BME280_pressure;Samples;Min_cycle;Max_cycle;Signal;HPM_P1;HPM_P2
2022/02/26 00:01:20;;;;;;;39.42;6.18;;;5.10;99.90;;;;;;5037075;28;20025;-72
2022/02/26 00:03:46;;;;;;;41.95;5.85;;;5.10;99.90;;;;;;5037108;28;20391;-72
2022/02/26 00:06:12;;;;;;;40.72;5.70;;;5.10;99.90;;;;;;5037968;28;20139;-72
2022/02/26 00:08:38;;;;;;;44.33;5.90;;;5.10;99.90;;;;;;5037187;28;20030;-72
2022/02/26 00:11:04;;;;;;;31.13;4.57;;;5.00;99.90;;;;;;5037160;28;20116;-72
2022/02/26 00:13:30;;;;;;;42.60;5.97;;;5.00;99.90;;;;;;5036443;28;20344;-72
2022/02/26 00:15:55;;;;;;;42.33;6.28;;;5.00;99.90;;;;;;5039080;28;20467;-72
2022/02/26 00:18:21;;;;;;;35.97;5.47;;;5.00;99.90;;;;;;5037398;28;20076;-72
2022/02/26 00:20:47;;;;;;;33.85;5.97;;;5.00;99.90;;;;;;5037064;28;20025;-72
2022/02/26 00:23:13;;;;;;;40.78;5.10;;;5.00;99.90;;;;;;5021315;28;20518;-71
2022/02/26 00:25:39;;;;;;;31.52;5.53;;;5.00;99.90;;;;;;5017577;28;20045;-71
2022/02/26 00:28:05;;;;;;;34.75;5.03;;;5.00;99.90;;;;;;5038003;28;20122;-71
2022/02/26 00:30:30;;;;;;;33.35;4.95;;;5.00;99.90;;;;;;5036682;28;20191;-71
2022/02/26 00:32:56;;;;;;;34.25;5.32;;;5.00;99.90;;;;;;5035512;28;20033;-71
2022/02/26 00:35:22;;;;;;;37.85;4.88;;;5.00;99.90;;;;;;5037255;28;20029;-71
2022/02/26 00:37:48;;;;;;;37.28;6.15;;;4.90;99.90;;;;;;5036905;28;20107;-72
2022/02/26 00:40:13;;;;;;;39.85;6.20;;;4.90;99.90;;;;;;5036905;28;20091;-72
2022/02/26 00:42:41;;;;;;;38.55;5.20;;;4.90;99.90;;;;;;5032521;28;20408;-72
2022/02/26 00:45:08;;;;;;;45.35;6.10;;;4.90;99.90;;;;;;5020762;28;20130;-72
2022/02/26 00:47:34;;;;;;;30.58;5.35;;;4.90;99.90;;;;;;5036508;28;20045;-71
2022/02/26 00:50:00;;;;;;;36.95;5.10;;;4.90;99.90;;;;;;5036560;28;20041;-72
2022/02/26 00:52:30;;;;;;;31.88;5.20;;;4.90;99.90;;;;;;5033473;28;20033;-72
2022/02/26 00:54:57;;;;;;;34.78;5.93;;;4.80;99.90;;;;;;5037999;28;20025;-72
2022/02/26 00:57:23;;;;;;;36.33;5.18;;;4.80;99.90;;;;;;5033878;28;20374;-72
2022/02/26 00:59:49;;;;;;;41.30;6.50;;;4.80;99.90;;;;;;5033845;28;20032;-71
2022/02/26 01:02:17;;;;;;;31.05;5.75;;;4.80;99.90;;;;;;5034525;28;20030;-72
2022/02/26 01:04:43;;;;;;;38.72;6.25;;;4.70;99.90;;;;;;5036196;28;20033;-72
2022/02/26 01:07:10;;;;;;;33.72;4.85;;;4.70;99.90;;;;;;5035022;28;20041;-72
2022/02/26 01:09:37;;;;;;;40.40;6.47;;;4.70;99.90;;;;;;5036218;28;20033;-71
2022/02/26 01:12:04;;;;;;;39.13;5.43;;;4.70;99.90;;;;;;5036466;28;20033;-71
2022/02/26 01:14:30;;;;;;;36.83;5.70;;;4.70;99.90;;;;;;5036157;28;20059;-72
2022/02/26 01:16:56;;;;;;;37.60;7.18;;;4.70;99.90;;;;;;5035324;28;20147;-72
2022/02/26 01:19:22;;;;;;;34.28;4.97;;;4.70;99.90;;;;;;5035414;28;20033;-72
2022/02/26 01:21:48;;;;;;;40.50;5.35;;;4.70;99.90;;;;;;5036420;28;20029;-72
2022/02/26 01:24:14;;;;;;;39.33;5.97;;;4.70;99.90;;;;;;5035715;28;20044;-72
2022/02/26 01:26:40;;;;;;;32.97;6.55;;;4.60;99.90;;;;;;5037128;28;20083;-72
2022/02/26 01:29:06;;;;;;;34.10;5.20;;;4.60;99.90;;;;;;5037592;28;20040;-72
2022/02/26 01:31:35;;;;;;;38.28;5.88;;;4.60;99.90;;;;;;5032540;28;20021;-72
2022/02/26 01:34:02;;;;;;;39.00;5.90;;;4.60;99.90;;;;;;5036162;28;20397;-72
2022/02/26 01:36:28;;;;;;;43.17;6.38;;;4.60;99.90;;;;;;5034013;28;20049;-71
2022/02/26 01:38:54;;;;;;;32.65;5.50;;;4.60;99.90;;;;;;5036829;28;20433;-72
2022/02/26 01:41:20;;;;;;;37.20;5.38;;;4.50;99.90;;;;;;5032605;28;20025;-72
2022/02/26 01:43:46;;;;;;;34.55;5.93;;;4.50;99.90;;;;;;5036221;28;20466;-72
2022/02/26 01:46:13;;;;;;;44.05;5.75;;;4.50;99.90;;;;;;5018245;28;20124;-72
2022/02/26 01:48:39;;;;;;;39.53;6.15;;;4.50;99.90;;;;;;5037395;28;20052;-72
2022/02/26 01:51:07;;;;;;;34.78;4.93;;;4.50;99.90;;;;;;5032038;28;20025;-71
2022/02/26 01:53:33;;;;;;;49.80;6.03;;;4.50;99.90;;;;;;5034475;28;20017;-71
2022/02/26 01:55:58;;;;;;;44.03;5.25;;;4.50;99.90;;;;;;5035370;28;20025;-72
2022/02/26 01:58:24;;;;;;;33.92;6.55;;;4.50;99.90;;;;;;5037357;28;20060;-72
2022/02/26 02:00:51;;;;;;;34.55;6.30;;;4.40;99.90;;;;;;5038314;28;20021;-72
2022/02/26 02:03:16;;;;;;;44.42;7.00;;;4.40;99.90;;;;;;5036574;28;20040;-72
2022/02/26 02:05:43;;;;;;;37.20;5.22;;;4.40;99.90;;;;;;5036404;28;20029;-71
2022/02/26 02:08:11;;;;;;;30.98;5.72;;;4.40;99.90;;;;;;5037456;28;20051;-72
2022/02/26 02:10:41;;;;;;;31.92;5.82;;;4.30;99.90;;;;;;5034286;28;20116;-71
2022/02/26 02:13:07;;;;;;;34.53;5.43;;;4.30;99.90;;;;;;5037063;28;20022;-72
2022/02/26 02:15:39;;;;;;;32.88;5.13;;;4.30;99.90;;;;;;5036712;28;20029;-71
2022/02/26 02:18:05;;;;;;;;;;;4.30;99.90;;;;;;5034569;28;20276;-72
2022/02/26 02:20:31;;;;;;;39.03;5.15;;;4.20;99.90;;;;;;5039418;28;19920;-71
2022/02/26 02:22:58;;;;;;;46.40;6.75;;;4.20;99.90;;;;;;5016959;28;20511;-72
2022/02/26 02:25:32;;;;;;;39.53;5.57;;;4.20;99.90;;;;;;5036589;28;20064;-71
2022/02/26 02:27:59;;;;;;;31.23;5.38;;;4.20;99.90;;;;;;5034407;28;20112;-72
2022/02/26 02:30:26;;;;;;;34.90;5.97;;;4.20;99.90;;;;;;5037811;28;20467;-72
2022/02/26 02:32:53;;;;;;;43.70;6.07;;;4.20;99.90;;;;;;5036422;28;20021;-71
2022/02/26 02:35:34;;;;;;;31.95;5.22;;;4.10;99.90;;;;;;5037937;28;20047;-72
2022/02/26 02:38:08;;;;;;;32.10;5.43;;;4.10;99.90;;;;;;5036538;28;20101;-71
2022/02/26 02:40:37;;;;;;;26.98;4.65;;;4.20;99.90;;;;;;5035434;28;20037;-72
2022/02/26 02:43:09;;;;;;;35.78;5.97;;;4.20;99.90;;;;;;5033414;28;20029;-72
2022/02/26 02:45:35;;;;;;;31.98;5.55;;;4.10;99.90;;;;;;5036225;28;20199;-72
2022/02/26 02:48:02;;;;;;;43.80;5.53;;;4.10;99.90;;;;;;5032463;28;20047;-72
2022/02/26 02:50:28;;;;;;;39.17;5.53;;;4.10;99.90;;;;;;5035036;28;20025;-72
2022/02/26 02:52:54;;;;;;;32.95;4.55;;;4.10;99.90;;;;;;5036951;28;20033;-72
2022/02/26 02:55:21;;;;;;;35.17;6.03;;;4.10;99.90;;;;;;5035246;28;20477;-72
2022/02/26 02:57:49;;;;;;;41.80;4.80;;;4.10;99.90;;;;;;5017690;28;20071;-71
2022/02/26 03:00:16;;;;;;;38.78;6.32;;;4.10;99.90;;;;;;5038529;28;20033;-72
2022/02/26 03:02:43;;;;;;;37.25;5.82;;;4.00;99.90;;;;;;5038520;28;20497;-71
2022/02/26 03:05:10;;;;;;;35.38;4.95;;;4.00;99.90;;;;;;5040383;28;20087;-72
2022/02/26 03:07:36;;;;;;;29.10;4.93;;;4.10;99.90;;;;;;5063827;22;20045;-71
2022/02/26 03:10:04;;;;;;;40.80;5.63;;;4.00;99.90;;;;;;5058831;28;20079;-73
2022/02/26 03:12:31;;;;;;;32.25;5.78;;;4.00;99.90;;;;;;5058852;28;20024;-73
2022/02/26 03:14:57;;;;;;;32.58;5.13;;;4.00;99.90;;;;;;5060321;28;20111;-73
2022/02/26 03:17:23;;;;;;;26.63;5.05;;;4.00;99.90;;;;;;5056459;28;20029;-73
2022/02/26 03:19:53;;;;;;;38.67;5.53;;;4.10;99.90;;;;;;5060137;28;20063;-73
2022/02/26 03:22:20;;;;;;;45.38;5.80;;;4.00;99.90;;;;;;5056888;28;20081;-73
2022/02/26 03:24:46;;;;;;;31.20;4.60;;;4.00;99.90;;;;;;5064727;28;20037;-74
2022/02/26 03:27:13;;;;;;;42.13;5.53;;;4.00;99.90;;;;;;5054070;28;20154;-73
2022/02/26 03:29:39;;;;;;;27.35;5.80;;;4.00;99.90;;;;;;5054921;28;20036;-71
2022/02/26 03:32:06;;;;;;;32.45;5.93;;;4.00;99.90;;;;;;5059569;28;20386;-72
2022/02/26 03:34:32;;;;;;;34.67;5.72;;;3.90;99.90;;;;;;5058220;28;20031;-71
2022/02/26 03:36:58;;;;;;;28.00;4.53;;;3.90;99.90;;;;;;5058352;28;20020;-72
2022/02/26 03:39:31;;;;;;;41.67;5.85;;;3.90;99.90;;;;;;5042226;28;20028;-71
2022/02/26 03:42:02;;;;;;;38.15;5.07;;;3.80;99.90;;;;;;5060011;28;20025;-72
2022/02/26 03:44:29;;;;;;;26.42;4.28;;;3.80;99.90;;;;;;5042346;28;20511;-72
2022/02/26 03:46:55;;;;;;;41.60;5.57;;;3.90;99.90;;;;;;5056483;28;20029;-72
2022/02/26 03:49:21;;;;;;;33.83;4.50;;;3.80;99.90;;;;;;5059049;28;20398;-72
2022/02/26 03:51:47;;;;;;;32.90;4.72;;;3.80;99.90;;;;;;5059193;28;20033;-72
2022/02/26 03:54:13;;;;;;;32.55;4.85;;;3.80;99.90;;;;;;5058487;28;20029;-72
2022/02/26 03:56:39;;;;;;;34.55;4.63;;;3.80;99.90;;;;;;5059589;28;20027;-72
2022/02/26 03:59:07;;;;;;;34.42;5.05;;;3.80;99.90;;;;;;5057893;28;20068;-71
2022/02/26 04:01:33;;;;;;;33.45;5.20;;;3.80;99.90;;;;;;5054974;28;20067;-71
2022/02/26 04:04:02;;;;;;;35.60;5.72;;;3.80;99.90;;;;;;5056456;28;20033;-72
2022/02/26 04:06:28;;;;;;;38.15;5.40;;;3.80;99.90;;;;;;5059468;28;20469;-72
2022/02/26 04:08:54;;;;;;;28.83;4.30;;;3.80;99.90;;;;;;5057659;28;20050;-72
2022/02/26 04:11:20;;;;;;;34.97;6.13;;;3.80;99.90;;;;;;5060525;28;20032;-72
2022/02/26 04:13:46;;;;;;;26.73;4.28;;;3.80;99.90;;;;;;5060288;28;20036;-72
2022/02/26 04:16:14;;;;;;;30.63;4.45;;;3.80;99.90;;;;;;5058034;28;20017;-72
2022/02/26 04:18:41;;;;;;;28.58;4.97;;;3.70;99.90;;;;;;5055630;28;20031;-72
2022/02/26 04:21:06;;;;;;;34.47;4.63;;;3.70;99.90;;;;;;5056270;28;20024;-72
2022/02/26 04:23:32;;;;;;;38.00;5.28;;;3.70;99.90;;;;;;5059564;28;20029;-71
2022/02/26 04:25:57;;;;;;;35.85;5.00;;;3.70;99.90;;;;;;5058423;28;20571;-73
2022/02/26 04:28:23;;;;;;;30.00;4.68;;;3.70;99.90;;;;;;5057396;28;20035;-72
2022/02/26 04:30:51;;;;;;;36.30;4.90;;;3.60;99.90;;;;;;5040290;28;20062;-72
2022/02/26 04:33:17;;;;;;;31.77;5.47;;;3.60;99.90;;;;;;5057566;28;20036;-71
2022/02/26 04:35:42;;;;;;;37.13;5.35;;;3.60;99.90;;;;;;5056224;28;20036;-72
2022/02/26 04:38:08;;;;;;;31.65;5.05;;;3.60;99.90;;;;;;5058198;28;20029;-72
2022/02/26 04:40:34;;;;;;;38.60;5.55;;;3.60;99.90;;;;;;5059438;28;20052;-72
2022/02/26 04:43:00;;;;;;;30.55;4.90;;;3.60;99.90;;;;;;5058743;28;20029;-72
2022/02/26 04:45:26;;;;;;;30.60;4.53;;;3.50;99.90;;;;;;5057828;28;20432;-72
2022/02/26 04:47:52;;;;;;;36.10;6.28;;;3.50;99.90;;;;;;5055442;28;20029;-72
2022/02/26 04:50:18;;;;;;;34.15;4.82;;;3.50;99.90;;;;;;5038887;28;20052;-72
2022/02/26 04:52:45;;;;;;;23.35;4.15;;;3.50;99.90;;;;;;5052754;28;20029;-72
2022/02/26 04:55:12;;;;;;;34.88;4.15;;;3.50;99.90;;;;;;5058464;28;20024;-72
2022/02/26 04:57:39;;;;;;;33.33;4.25;;;3.50;99.90;;;;;;5057121;28;20154;-73
2022/02/26 05:00:08;;;;;;;26.20;4.53;;;3.50;99.90;;;;;;5056322;28;20032;-72
2022/02/26 05:02:34;;;;;;;35.15;4.85;;;3.50;99.90;;;;;;5054090;28;20033;-72
2022/02/26 05:04:59;;;;;;;32.45;4.22;;;3.40;99.90;;;;;;5052777;28;20034;-72
2022/02/26 05:07:25;;;;;;;25.98;4.00;;;3.40;99.90;;;;;;5056359;28;20028;-72
2022/02/26 05:09:52;;;;;;;28.65;4.35;;;3.50;99.90;;;;;;5055301;28;20028;-72
2022/02/26 05:12:23;;;;;;;31.38;4.85;;;3.50;99.90;;;;;;5056254;28;20503;-72
2022/02/26 05:14:49;;;;;;;28.23;3.63;;;3.50;99.90;;;;;;5057532;28;20031;-72
2022/02/26 05:17:15;;;;;;;26.40;3.80;;;3.40;99.90;;;;;;5054562;28;20036;-72
2022/02/26 05:19:41;;;;;;;29.65;5.60;;;3.40;99.90;;;;;;5058494;28;20039;-72
2022/02/26 05:22:06;;;;;;;27.30;4.55;;;3.40;99.90;;;;;;5056248;28;20485;-72
2022/02/26 05:24:32;;;;;;;28.58;3.88;;;3.40;99.90;;;;;;5056216;28;20113;-72
2022/02/26 05:26:58;;;;;;;27.08;4.30;;;3.40;99.90;;;;;;5036968;28;20146;-72
2022/02/26 05:29:24;;;;;;;31.20;5.88;;;3.40;99.90;;;;;;5059242;28;20025;-72
2022/02/26 05:31:49;;;;;;;30.17;4.65;;;3.40;99.90;;;;;;5058610;28;20389;-71
2022/02/26 05:34:15;;;;;;;28.13;4.43;;;3.40;99.90;;;;;;5060216;28;20110;-72
2022/02/26 05:36:41;;;;;;;29.45;4.45;;;3.40;99.90;;;;;;5057689;28;20458;-71
2022/02/26 05:39:07;;;;;;;23.83;4.47;;;3.30;99.90;;;;;;5058692;28;20130;-74
2022/02/26 05:41:32;;;;;;;29.73;4.18;;;3.30;99.90;;;;;;5054785;28;20489;-74
2022/02/26 05:43:58;;;;;;;23.17;3.75;;;3.30;99.90;;;;;;5058536;28;20029;-72
2022/02/26 05:46:24;;;;;;;26.70;3.78;;;3.30;99.90;;;;;;5058820;28;20486;-74
2022/02/26 05:48:50;;;;;;;24.80;4.13;;;3.30;99.90;;;;;;5058170;28;20029;-73
2022/02/26 05:51:17;;;;;;;22.50;3.92;;;3.30;99.90;;;;;;5053998;28;20033;-72
2022/02/26 05:53:44;;;;;;;23.95;3.90;;;3.20;99.90;;;;;;5056635;28;20033;-72
2022/02/26 05:56:09;;;;;;;31.52;5.90;;;3.20;99.90;;;;;;5058341;28;20025;-72
2022/02/26 05:58:35;;;;;;;29.05;6.97;;;3.20;99.90;;;;;;5055285;28;20091;-71
2022/02/26 06:01:01;;;;;;;27.10;4.38;;;3.10;99.90;;;;;;5055171;28;20115;-71
2022/02/26 06:03:27;;;;;;;25.25;4.30;;;3.10;99.90;;;;;;5056132;28;20080;-71
2022/02/26 06:05:54;;;;;;;26.45;4.57;;;3.10;99.90;;;;;;5055576;28;20028;-71
2022/02/26 06:08:20;;;;;;;30.95;3.72;;;3.10;99.90;;;;;;5038861;28;20072;-72
2022/02/26 06:10:49;;;;;;;32.55;4.70;;;3.20;99.90;;;;;;5059667;28;20114;-72
2022/02/26 06:13:17;;;;;;;34.78;5.05;;;3.20;99.90;;;;;;5058891;28;20021;-73
2022/02/26 06:15:46;;;;;;;35.95;5.25;;;3.20;99.90;;;;;;5046102;28;20119;-72
2022/02/26 06:18:12;;;;;;;38.33;5.50;;;3.10;99.90;;;;;;5058713;28;20071;-71
2022/02/26 06:20:38;;;;;;;30.83;4.72;;;3.10;99.90;;;;;;5056429;28;20079;-72
2022/02/26 06:23:04;;;;;;;37.63;5.43;;;3.10;99.90;;;;;;5054573;28;20028;-71
2022/02/26 06:25:30;;;;;;;28.45;5.07;;;3.10;99.90;;;;;;5040856;28;20326;-72
2022/02/26 06:27:55;;;;;;;28.55;4.47;;;3.10;99.90;;;;;;5056681;28;20071;-72
2022/02/26 06:30:21;;;;;;;31.30;4.72;;;3.20;99.90;;;;;;5055533;28;20502;-74
2022/02/26 06:32:47;;;;;;;32.08;4.55;;;3.20;99.90;;;;;;5043222;28;20055;-72
2022/02/26 06:35:14;;;;;;;29.70;4.53;;;3.20;99.90;;;;;;5056772;28;20493;-74
2022/02/26 06:37:40;;;;;;;21.48;4.15;;;3.10;99.90;;;;;;5059030;28;20025;-74
2022/02/26 06:40:07;;;;;;;29.65;4.57;;;3.20;99.90;;;;;;5057063;28;20290;-73
2022/02/26 06:42:33;;;;;;;33.50;4.63;;;3.20;99.90;;;;;;5057255;28;20174;-74
2022/02/26 06:44:58;;;;;;;32.22;4.50;;;3.20;99.90;;;;;;5060090;28;20476;-74
2022/02/26 06:47:24;;;;;;;23.55;5.70;;;3.20;99.90;;;;;;5059651;28;20025;-71
2022/02/26 06:49:50;;;;;;;31.23;4.88;;;3.30;99.90;;;;;;5054834;28;20052;-73
2022/02/26 06:52:18;;;;;;;31.27;4.25;;;3.30;99.90;;;;;;5058860;28;20206;-71
2022/02/26 06:54:44;;;;;;;29.17;5.13;;;3.30;99.90;;;;;;5075926;28;20090;-72
2022/02/26 06:57:10;;;;;;;22.75;4.25;;;3.30;99.90;;;;;;5057942;28;20107;-71
2022/02/26 06:59:35;;;;;;;30.90;4.25;;;3.30;99.90;;;;;;5060823;28;20498;-72
2022/02/26 07:02:01;;;;;;;27.35;4.65;;;3.30;99.90;;;;;;5058965;28;20401;-73
2022/02/26 07:04:29;;;;;;;28.88;3.60;;;3.30;99.90;;;;;;5059144;28;20029;-72
2022/02/26 07:06:55;;;;;;;35.53;5.13;;;3.30;99.90;;;;;;5057781;28;20083;-71
2022/02/26 07:09:22;;;;;;;23.65;4.13;;;3.40;99.90;;;;;;5040074;28;20024;-72
2022/02/26 07:11:50;;;;;;;35.78;4.60;;;3.40;99.90;;;;;;5061001;28;20029;-72
2022/02/26 07:14:16;;;;;;;26.80;4.50;;;3.40;99.90;;;;;;5058870;28;20036;-72
2022/02/26 07:16:43;;;;;;;32.85;4.32;;;3.40;99.90;;;;;;5063665;28;20036;-73
2022/02/26 07:19:09;;;;;;;35.85;4.57;;;3.40;99.90;;;;;;5057009;28;20058;-72
2022/02/26 07:21:36;;;;;;;31.25;5.07;;;3.50;99.90;;;;;;5042755;28;20804;-72
2022/02/26 07:24:02;;;;;;;21.73;4.90;;;3.50;99.90;;;;;;5057404;28;20051;-72
2022/02/26 07:26:31;;;;;;;26.92;4.72;;;3.50;99.90;;;;;;5060542;28;20068;-72
2022/02/26 07:28:59;;;;;;;23.75;4.20;;;3.50;99.90;;;;;;5057571;28;20040;-72
2022/02/26 07:31:26;;;;;;;26.77;3.97;;;3.60;99.90;;;;;;5057665;28;20029;-72
2022/02/26 07:33:56;;;;;;;19.42;4.63;;;3.60;99.90;;;;;;5054659;28;20028;-72
2022/02/26 07:36:23;;;;;;;29.85;4.38;;;3.60;99.90;;;;;;5058164;28;20024;-72
2022/02/26 07:38:49;;;;;;;36.78;5.60;;;3.70;99.90;;;;;;5056927;28;20032;-72
2022/02/26 07:41:14;;;;;;;27.27;4.82;;;3.70;99.90;;;;;;5059196;28;20028;-71
2022/02/26 07:43:41;;;;;;;24.17;4.07;;;3.70;99.90;;;;;;5054658;28;20021;-72
2022/02/26 07:46:07;;;;;;;34.53;5.22;;;3.80;99.90;;;;;;5040664;28;20025;-71
2022/02/26 07:48:33;;;;;;;22.73;5.00;;;3.80;99.90;;;;;;5055764;28;20030;-71
2022/02/26 07:51:00;;;;;;;32.05;4.53;;;3.80;99.90;;;;;;5055567;28;20047;-71
2022/02/26 07:53:25;;;;;;;26.85;5.55;;;3.80;99.90;;;;;;5052142;28;20035;-70
2022/02/26 07:55:52;;;;;;;30.15;4.57;;;3.90;99.90;;;;;;5041036;28;20024;-72
2022/02/26 07:58:17;;;;;;;28.65;4.43;;;3.90;99.90;;;;;;5056056;28;20037;-72
2022/02/26 08:00:43;;;;;;;26.67;5.07;;;3.90;99.90;;;;;;5057628;28;20087;-72
2022/02/26 08:03:09;;;;;;;24.90;4.30;;;3.90;99.90;;;;;;5054730;28;20033;-72
2022/02/26 08:05:35;;;;;;;24.63;5.13;;;4.00;99.90;;;;;;5054023;28;20029;-73
2022/02/26 08:08:01;;;;;;;24.85;5.28;;;4.00;99.90;;;;;;5053904;28;20513;-72
2022/02/26 08:10:27;;;;;;;28.02;4.40;;;4.00;99.90;;;;;;5049653;28;20124;-72
2022/02/26 08:12:55;;;;;;;37.22;4.72;;;4.10;99.90;;;;;;5057309;28;20024;-72
2022/02/26 08:15:23;;;;;;;23.75;4.82;;;4.10;99.90;;;;;;5057947;28;20021;-72
2022/02/26 08:17:49;;;;;;;53.17;5.78;;;4.20;99.90;;;;;;5058841;28;20024;-71
2022/02/26 08:20:17;;;;;;;27.17;5.15;;;4.20;99.90;;;;;;5059050;28;20037;-72
2022/02/26 08:22:44;;;;;;;30.27;4.88;;;4.20;99.90;;;;;;5058119;28;20025;-71
2022/02/26 08:25:11;;;;;;;21.95;4.15;;;4.30;99.90;;;;;;5054438;28;20474;-71
2022/02/26 08:27:40;;;;;;;27.75;4.68;;;4.30;99.90;;;;;;5059668;28;20498;-71
2022/02/26 08:30:09;;;;;;;27.05;4.50;;;4.30;99.90;;;;;;5057764;28;20020;-71
2022/02/26 08:32:35;;;;;;;26.63;4.45;;;4.40;99.90;;;;;;5057336;28;20112;-71
2022/02/26 08:35:01;;;;;;;27.35;5.45;;;4.40;99.90;;;;;;5039337;28;20471;-72
2022/02/26 08:37:26;;;;;;;23.67;4.20;;;4.50;99.90;;;;;;5052442;28;20108;-73
2022/02/26 08:39:52;;;;;;;16.95;3.92;;;4.50;99.90;;;;;;5057143;28;20553;-72
2022/02/26 08:42:18;;;;;;;20.40;4.22;;;4.50;99.90;;;;;;5055120;28;20106;-70
2022/02/26 08:44:44;;;;;;;27.25;4.40;;;4.50;99.90;;;;;;5049070;28;20067;-70
2022/02/26 08:47:09;;;;;;;25.00;4.15;;;4.60;99.90;;;;;;5049082;28;20041;-71
2022/02/26 08:49:35;;;;;;;20.45;4.05;;;4.60;99.90;;;;;;5047303;28;20037;-71
2022/02/26 08:52:03;;;;;;;19.67;3.95;;;4.60;99.90;;;;;;5051454;28;20151;-71
2022/02/26 08:54:29;;;;;;;26.25;4.70;;;4.60;99.90;;;;;;5052458;28;20032;-71
2022/02/26 08:56:55;;;;;;;29.13;4.40;;;4.80;99.90;;;;;;5030937;28;20491;-70
2022/02/26 08:59:21;;;;;;;22.48;4.28;;;4.80;99.90;;;;;;5050198;28;20116;-71
2022/02/26 09:01:46;;;;;;;22.17;4.85;;;4.80;99.90;;;;;;5053234;28;20586;-71
2022/02/26 09:04:12;;;;;;;30.30;4.50;;;4.80;99.90;;;;;;5049040;28;20494;-72
2022/02/26 09:06:38;;;;;;;24.02;5.28;;;4.90;99.90;;;;;;5049989;28;20032;-71
2022/02/26 09:09:08;;;;;;;31.95;5.45;;;4.90;99.90;;;;;;5073698;22;20048;-69
2022/02/26 09:11:35;;;;;;;25.65;4.10;;;4.90;99.90;;;;;;5055468;28;20032;-70
2022/02/26 09:14:01;;;;;;;25.77;4.10;;;4.90;99.90;;;;;;5054345;28;20021;-70
2022/02/26 09:16:27;;;;;;;23.60;3.80;;;4.90;99.90;;;;;;5052653;28;20187;-70
2022/02/26 09:18:53;;;;;;;25.83;4.57;;;5.00;99.90;;;;;;5053445;28;20529;-70
2022/02/26 09:21:19;;;;;;;17.90;3.00;;;5.00;99.90;;;;;;5057648;28;20405;-70
2022/02/26 09:23:45;;;;;;;24.88;3.67;;;5.00;99.90;;;;;;5054967;28;20075;-70
2022/02/26 09:26:10;;;;;;;17.58;3.88;;;5.10;99.90;;;;;;5054162;28;20029;-70
2022/02/26 09:28:39;;;;;;;22.33;4.35;;;5.10;99.90;;;;;;5054034;28;20028;-70
2022/02/26 09:31:05;;;;;;;20.48;3.70;;;5.10;99.90;;;;;;5049460;28;20032;-70
2022/02/26 09:33:31;;;;;;;24.30;3.88;;;5.10;99.90;;;;;;5057288;28;20021;-70
2022/02/26 09:35:59;;;;;;;18.67;3.90;;;5.20;99.90;;;;;;5053423;28;20024;-71
2022/02/26 09:38:25;;;;;;;21.33;4.35;;;5.20;99.90;;;;;;5055772;28;20082;-69
2022/02/26 09:40:53;;;;;;;11.65;2.80;;;5.30;99.90;;;;;;5041111;28;20029;-70
2022/02/26 09:43:21;;;;;;;14.20;3.05;;;5.30;99.90;;;;;;5057807;28;20132;-70
2022/02/26 09:45:49;;;;;;;16.10;2.85;;;5.30;99.90;;;;;;5057331;28;20017;-71
2022/02/26 09:48:15;;;;;;;17.25;2.35;;;5.40;99.90;;;;;;5055908;28;20043;-69
2022/02/26 09:50:44;;;;;;;24.60;3.20;;;5.40;99.90;;;;;;5057452;28;20103;-70
2022/02/26 09:53:11;;;;;;;19.65;3.45;;;5.30;99.90;;;;;;5051924;28;20024;-70
2022/02/26 09:55:38;;;;;;;22.95;3.35;;;5.40;99.90;;;;;;5057271;28;20497;-70
2022/02/26 09:58:05;;;;;;;18.10;3.67;;;5.50;99.90;;;;;;5050097;28;20068;-69
2022/02/26 10:00:31;;;;;;;14.90;2.80;;;5.60;99.90;;;;;;5049550;28;20029;-70
2022/02/26 10:02:56;;;;;;;14.40;2.53;;;5.60;99.90;;;;;;5052561;28;20615;-70
2022/02/26 10:05:25;;;;;;;9.30;3.00;;;5.80;99.90;;;;;;5046640;28;20059;-71
2022/02/26 10:07:51;;;;;;;21.00;4.00;;;5.90;99.90;;;;;;5053643;28;20036;-71
2022/02/26 10:10:19;;;;;;;16.40;3.70;;;6.10;99.90;;;;;;5066664;28;20029;-71
2022/02/26 10:12:53;;;;;;;17.48;2.63;;;6.30;99.90;;;;;;5054136;28;20494;-70
2022/02/26 10:15:25;;;;;;;16.10;2.83;;;6.70;99.90;;;;;;5051286;28;20590;-71
2022/02/26 10:18:17;;;;;;;;;;;7.10;99.90;;;;;;5055279;28;20024;-70
2022/02/26 10:20:49;;;;;;;8.95;2.30;;;7.80;99.90;;;;;;5055108;28;19940;-70
2022/02/26 10:23:17;;;;;;;13.40;3.17;;;8.70;99.90;;;;;;5059960;28;20116;-71
2022/02/26 10:25:43;;;;;;;9.05;2.22;;;9.50;99.90;;;;;;5051448;28;20366;-70
2022/02/26 10:28:14;;;;;;;12.48;2.78;;;10.30;99.90;;;;;;5059083;28;20569;-71
2022/02/26 10:30:44;;;;;;;9.60;3.05;;;11.20;99.90;;;;;;5058848;28;20037;-71
2022/02/26 10:33:23;;;;;;;8.13;2.15;;;12.00;99.90;;;;;;5060382;28;20131;-73
2022/02/26 10:35:59;;;;;;;6.50;1.88;;;13.60;99.50;;;;;;5056190;28;20115;-71
2022/02/26 10:38:27;;;;;;;10.07;2.03;;;15.90;95.50;;;;;;5056715;28;20490;-70
2022/02/26 10:41:08;;;;;;;7.18;2.20;;;17.70;64.70;;;;;;5054742;28;20033;-74
2022/02/26 10:43:51;;;;;;;6.60;2.22;;;19.40;59.20;;;;;;5055090;28;20402;-73
2022/02/26 10:46:24;;;;;;;8.70;2.78;;;21.20;55.00;;;;;;5055497;28;20478;-72
2022/02/26 10:48:53;;;;;;;7.88;2.47;;;22.50;47.50;;;;;;5047157;28;20021;-72
2022/02/26 10:51:26;;;;;;;5.50;1.85;;;22.70;47.60;;;;;;5050144;28;20115;-69
2022/02/26 10:53:52;;;;;;;8.57;2.25;;;23.60;45.60;;;;;;5048004;28;20384;-72
2022/02/26 10:56:18;;;;;;;7.47;2.08;;;24.50;44.30;;;;;;5050078;28;20032;-72
2022/02/26 10:58:44;;;;;;;7.22;1.98;;;24.40;43.00;;;;;;5058224;28;20040;-72
2022/02/26 11:01:12;;;;;;;10.73;2.30;;;25.40;43.50;;;;;;5058987;28;20489;-71
2022/02/26 11:03:38;;;;;;;7.68;2.65;;;25.40;41.20;;;;;;5057843;28;20417;-70
2022/02/26 11:06:06;;;;;;;9.10;3.17;;;25.20;41.60;;;;;;5049827;28;20447;-70
2022/02/26 11:08:33;;;;;;;7.93;3.03;;;25.10;39.10;;;;;;5052895;28;20604;-70
2022/02/26 11:11:03;;;;;;;8.25;4.95;;;25.40;36.80;;;;;;5049939;28;20033;-71
2022/02/26 11:13:30;;;;;;;8.00;3.65;;;25.60;40.00;;;;;;5042739;28;20032;-70
2022/02/26 11:16:00;;;;;;;8.40;4.40;;;25.40;37.10;;;;;;5060266;28;20393;-71
2022/02/26 11:18:35;;;;;;;5.95;2.70;;;25.00;38.40;;;;;;5060170;28;20021;-70
2022/02/26 11:21:01;;;;;;;8.32;2.15;;;24.70;39.20;;;;;;5059496;28;20074;-71
2022/02/26 11:23:27;;;;;;;5.45;2.30;;;25.20;38.30;;;;;;5042258;28;20437;-70
2022/02/26 11:25:54;;;;;;;11.73;2.53;;;25.60;40.70;;;;;;5061887;28;20155;-70
2022/02/26 11:28:20;;;;;;;11.20;2.28;;;25.20;38.10;;;;;;5057854;28;20025;-70
2022/02/26 11:30:55;;;;;;;6.40;2.00;;;24.70;37.60;;;;;;5059887;28;20481;-71
2022/02/26 11:33:21;;;;;;;6.93;1.98;;;25.10;39.80;;;;;;5058329;28;20020;-70
2022/02/26 11:35:56;;;;;;;6.35;2.08;;;25.00;41.20;;;;;;5038938;28;20025;-71
2022/02/26 11:38:22;;;;;;;9.73;2.22;;;24.30;41.50;;;;;;5057268;28;20445;-70
2022/02/26 11:40:49;;;;;;;7.30;2.38;;;23.60;40.90;;;;;;5058447;28;20490;-71
2022/02/26 11:43:36;;;;;;;10.07;2.65;;;23.00;39.10;;;;;;5059663;28;20104;-70
2022/02/26 11:46:25;;;;;;;9.43;2.28;;;22.20;42.20;;;;;;5057202;28;20063;-72
2022/02/26 11:48:53;;;;;;;8.52;2.30;;;20.50;45.70;;;;;;5039311;28;20111;-70
2022/02/26 11:51:19;;;;;;;6.35;1.95;;;19.40;47.50;;;;;;5057260;28;20039;-71
2022/02/26 11:53:46;;;;;;;7.07;2.20;;;18.40;50.70;;;;;;5055622;28;20033;-72
2022/02/26 11:56:16;;;;;;;7.07;2.08;;;17.50;50.30;;;;;;5053764;28;20033;-71
2022/02/26 11:58:44;;;;;;;6.20;1.50;;;16.50;51.10;;;;;;5060381;28;20032;-72
2022/02/26 12:01:12;;;;;;;7.05;1.55;;;15.50;56.00;;;;;;5056614;28;20044;-72
2022/02/26 12:03:54;;;;;;;13.18;2.22;;;14.50;54.40;;;;;;5057107;28;20017;-72
2022/02/26 12:06:26;;;;;;;6.72;1.80;;;13.70;55.60;;;;;;5056429;28;20120;-71
2022/02/26 12:08:52;;;;;;;5.82;1.42;;;13.10;62.00;;;;;;5057571;28;20417;-72
2022/02/26 12:11:21;;;;;;;7.72;2.10;;;12.60;67.30;;;;;;5039549;28;20063;-71
2022/02/26 12:13:49;;;;;;;6.75;1.73;;;12.20;72.00;;;;;;5055651;28;20037;-71
2022/02/26 12:16:16;;;;;;;5.18;1.42;;;11.80;78.20;;;;;;5058437;28;20064;-71
2022/02/26 12:18:46;;;;;;;5.18;1.23;;;11.50;79.30;;;;;;5057473;28;20032;-71
2022/02/26 12:21:15;;;;;;;6.15;1.63;;;11.20;81.00;;;;;;5049585;28;21801;-72
2022/02/26 12:23:47;;;;;;;4.68;1.85;;;10.90;88.60;;;;;;5055219;28;20498;-72
2022/02/26 12:26:12;;;;;;;;;;;10.60;90.80;;;;;;5056978;28;20029;-71
2022/02/26 12:28:39;;;;;;;4.85;1.70;;;10.40;93.70;;;;;;5055703;28;19913;-71
2022/02/26 12:31:09;;;;;;;6.07;1.45;;;10.20;94.70;;;;;;5028033;28;20481;-71
2022/02/26 12:33:48;;;;;;;7.03;1.55;;;10.00;85.40;;;;;;5050946;28;20029;-71
2022/02/26 12:36:17;;;;;;;8.95;2.55;;;9.80;91.70;;;;;;5055906;28;20033;-71
2022/02/26 12:38:48;;;;;;;5.53;1.60;;;9.70;94.80;;;;;;5047673;28;20029;-71
2022/02/26 12:41:32;;;;;;;7.03;1.45;;;9.70;92.80;;;;;;5052780;28;20041;-71
2022/02/26 12:43:59;;;;;;;8.45;1.80;;;9.60;96.20;;;;;;5056709;28;20058;-72
2022/02/26 12:46:28;;;;;;;6.78;1.58;;;9.50;98.00;;;;;;5056150;28;20071;-71
2022/02/26 12:49:00;;;;;;;6.68;1.45;;;9.50;96.80;;;;;;5052416;28;20680;-71